createdAt,value
2017-11-29T00:01:55.071Z,5.90
2017-11-29T00:04:23.295Z,11.47
2017-11-29T00:06:51.584Z,8.37
2017-11-29T00:09:19.028Z,10.60
2017-11-29T00:11:47.239Z,10.83
2017-11-29T00:14:14.715Z,14.93
2017-11-29T00:16:42.178Z,11.20
2017-11-29T00:19:09.638Z,11.80
2017-11-29T00:21:37.911Z,11.93
2017-11-29T00:24:05.375Z,10.00
2017-11-29T00:26:32.831Z,6.57
2017-11-29T00:29:00.357Z,8.00
2017-11-29T00:31:27.803Z,12.50
2017-11-29T00:33:55.252Z,12.47
2017-11-29T00:36:22.719Z,10.80
2017-11-29T00:38:50.842Z,10.70
2017-11-29T00:41:18.298Z,12.07
2017-11-29T00:43:45.755Z,9.80
2017-11-29T00:46:14.871Z,9.53
2017-11-29T00:48:43.847Z,16.23
2017-11-29T00:51:11.303Z,9.13
2017-11-29T00:53:38.763Z,14.27
2017-11-29T00:56:06.231Z,14.83
2017-11-29T00:58:33.700Z,14.20
2017-11-29T01:01:01.933Z,11.47
2017-11-29T01:03:29.388Z,13.97
2017-11-29T01:05:57.612Z,9.60
2017-11-29T01:08:25.881Z,14.47
2017-11-29T01:10:53.318Z,11.80
2017-11-29T01:13:20.776Z,10.70
2017-11-29T01:15:48.251Z,17.33
2017-11-29T01:18:15.704Z,10.67
2017-11-29T01:20:43.171Z,11.57
2017-11-29T01:23:10.627Z,12.27
2017-11-29T01:25:38.109Z,14.03
2017-11-29T01:28:05.587Z,11.70
2017-11-29T01:30:33.034Z,10.00
2017-11-29T01:33:01.263Z,14.50
2017-11-29T01:35:28.722Z,15.20
2017-11-29T01:37:56.192Z,16.23
2017-11-29T01:40:24.448Z,13.13
2017-11-29T01:42:51.916Z,12.80
2017-11-29T01:45:19.380Z,11.90
2017-11-29T01:47:46.848Z,14.37
2017-11-29T01:50:15.068Z,14.57
2017-11-29T01:52:43.497Z,14.40
2017-11-29T01:55:11.744Z,16.97
2017-11-29T01:57:39.228Z,12.87
2017-11-29T02:00:06.687Z,14.23
2017-11-29T02:02:34.144Z,19.73
2017-11-29T02:05:02.367Z,12.30
2017-11-29T02:07:29.834Z,18.60
2017-11-29T02:09:57.283Z,15.73
2017-11-29T02:12:24.739Z,13.90
2017-11-29T02:14:52.963Z,20.10
2017-11-29T02:17:20.430Z,18.80
2017-11-29T02:19:48.648Z,18.10
2017-11-29T02:22:16.891Z,19.37
2017-11-29T02:24:44.350Z,18.60
2017-11-29T02:27:12.589Z,17.53
2017-11-29T02:29:40.075Z,16.13
2017-11-29T02:32:08.321Z,19.50
2017-11-29T02:34:35.822Z,19.50
2017-11-29T02:37:03.252Z,18.43
2017-11-29T02:39:30.717Z,18.57
2017-11-29T02:42:10.074Z,16.83
2017-11-29T02:44:37.536Z,23.23
2017-11-29T02:47:04.985Z,22.13
2017-11-29T02:49:32.447Z,21.90
2017-11-29T02:51:59.908Z,20.40
2017-11-29T02:54:27.362Z,20.10
2017-11-29T02:56:54.811Z,20.17
2017-11-29T02:59:23.062Z,24.53
2017-11-29T03:01:50.523Z,21.30
2017-11-29T03:04:17.984Z,21.63
2017-11-29T03:06:45.436Z,19.87
2017-11-29T03:09:12.898Z,21.80
2017-11-29T03:11:41.126Z,22.60
2017-11-29T03:14:08.599Z,20.70
2017-11-29T03:16:36.059Z,19.63
2017-11-29T03:19:04.291Z,22.50
2017-11-29T03:21:31.761Z,20.47
2017-11-29T03:23:59.252Z,22.70
2017-11-29T03:26:26.708Z,25.60
2017-11-29T03:28:54.166Z,26.67
2017-11-29T03:31:21.654Z,25.13
2017-11-29T03:33:49.111Z,22.80
2017-11-29T03:36:17.381Z,21.20
2017-11-29T03:38:44.838Z,21.10
2017-11-29T03:41:12.290Z,21.03
2017-11-29T03:43:39.755Z,21.27
2017-11-29T03:46:07.211Z,24.00
2017-11-29T03:48:35.453Z,25.03
2017-11-29T03:51:03.659Z,21.30
2017-11-29T03:53:31.114Z,20.47
2017-11-29T03:55:58.579Z,21.97
2017-11-29T03:58:26.820Z,26.60
2017-11-29T04:00:54.280Z,22.27
2017-11-29T04:03:21.727Z,22.10
2017-11-29T04:05:49.196Z,25.20
2017-11-29T04:08:16.650Z,19.93
2017-11-29T04:10:44.138Z,20.37
2017-11-29T04:13:12.368Z,24.60
2017-11-29T04:15:39.829Z,21.97
2017-11-29T04:18:07.322Z,20.17
2017-11-29T04:20:34.784Z,22.77
2017-11-29T04:23:02.252Z,25.40
2017-11-29T04:25:30.479Z,22.90
2017-11-29T04:27:57.953Z,23.23
2017-11-29T04:30:25.405Z,24.47
2017-11-29T04:32:52.896Z,21.80
2017-11-29T04:35:20.359Z,22.13
2017-11-29T04:37:48.592Z,22.17
2017-11-29T04:40:16.051Z,26.20
2017-11-29T04:42:43.536Z,21.63
2017-11-29T04:45:10.992Z,21.17
2017-11-29T04:47:38.471Z,24.00
2017-11-29T04:50:06.705Z,27.10
2017-11-29T04:52:34.174Z,21.03
2017-11-29T04:55:01.630Z,20.77
2017-11-29T04:57:29.100Z,20.93
2017-11-29T04:59:56.543Z,29.07
2017-11-29T05:02:24.017Z,23.10
2017-11-29T05:04:51.466Z,22.50
2017-11-29T05:07:18.922Z,21.07
2017-11-29T05:09:46.379Z,25.00
2017-11-29T05:12:13.834Z,27.10
2017-11-29T05:14:41.301Z,22.90
2017-11-29T05:17:09.550Z,27.37
2017-11-29T05:19:37.009Z,23.17
2017-11-29T05:22:04.488Z,30.40
2017-11-29T05:24:31.943Z,24.17
2017-11-29T05:26:59.399Z,27.20
2017-11-29T05:29:26.857Z,23.90
2017-11-29T05:31:54.317Z,28.60
2017-11-29T05:34:21.771Z,29.60
2017-11-29T05:36:49.229Z,26.93
2017-11-29T05:39:16.682Z,24.30
2017-11-29T05:41:44.144Z,24.33
2017-11-29T05:44:12.371Z,25.67
2017-11-29T05:46:39.847Z,24.90
2017-11-29T05:49:07.320Z,28.00
2017-11-29T05:51:34.783Z,24.00
2017-11-29T05:54:02.247Z,21.60
2017-11-29T05:56:30.474Z,25.73
2017-11-29T05:58:58.702Z,27.60
2017-11-29T06:01:26.158Z,25.43
2017-11-29T06:03:54.396Z,29.20
2017-11-29T06:06:21.867Z,28.43
2017-11-29T06:08:49.327Z,27.37
2017-11-29T06:11:16.782Z,26.13
2017-11-29T06:13:45.005Z,23.13
2017-11-29T06:16:13.228Z,27.63
2017-11-29T06:18:41.454Z,23.40
2017-11-29T06:21:08.914Z,23.37
2017-11-29T06:23:37.148Z,28.37
2017-11-29T06:26:04.606Z,29.60
2017-11-29T06:28:32.062Z,29.10
2017-11-29T06:30:59.537Z,28.10
2017-11-29T06:33:26.999Z,27.00
2017-11-29T06:35:55.246Z,23.90
2017-11-29T06:38:22.695Z,28.97
2017-11-29T06:40:50.184Z,23.23
2017-11-29T06:43:17.631Z,25.60
2017-11-29T06:45:45.105Z,27.77
2017-11-29T06:48:12.635Z,24.97
2017-11-29T06:50:40.870Z,28.70
2017-11-29T06:53:09.091Z,27.23
2017-11-29T06:55:36.579Z,26.00
2017-11-29T06:58:04.824Z,26.77
2017-11-29T07:00:32.278Z,28.43
2017-11-29T07:02:59.759Z,26.93
2017-11-29T07:05:27.225Z,24.70
2017-11-29T07:07:55.460Z,26.30
2017-11-29T07:10:22.939Z,25.60
2017-11-29T07:12:50.392Z,26.13
2017-11-29T07:15:17.848Z,31.87
2017-11-29T07:17:45.311Z,25.87
2017-11-29T07:20:12.758Z,28.50
2017-11-29T07:22:40.231Z,29.97
2017-11-29T07:25:07.688Z,32.13
2017-11-29T07:27:35.152Z,26.23
2017-11-29T07:30:02.609Z,30.07
2017-11-29T07:32:30.073Z,36.40
2017-11-29T07:34:57.523Z,29.47
2017-11-29T07:37:24.984Z,30.67
2017-11-29T07:39:52.441Z,31.20
2017-11-29T07:42:19.895Z,31.90
2017-11-29T07:44:47.357Z,29.47
2017-11-29T07:47:14.819Z,32.43
2017-11-29T07:49:43.047Z,33.77
2017-11-29T07:52:10.531Z,29.80
2017-11-29T07:54:37.985Z,32.50
2017-11-29T07:57:05.457Z,28.80
2017-11-29T07:59:32.915Z,36.20
2017-11-29T08:02:00.375Z,30.10
2017-11-29T08:04:27.830Z,29.80
2017-11-29T08:06:56.066Z,27.83
2017-11-29T08:09:23.567Z,26.03
2017-11-29T08:11:51.019Z,27.87
2017-11-29T08:14:18.480Z,28.37
2017-11-29T08:16:45.931Z,34.23
2017-11-29T08:19:14.176Z,38.37
2017-11-29T08:21:41.642Z,28.87
2017-11-29T08:24:09.121Z,29.77
2017-11-29T08:26:36.568Z,31.40
2017-11-29T08:29:04.027Z,33.77
2017-11-29T08:31:31.487Z,29.37
2017-11-29T08:33:58.943Z,31.50
2017-11-29T08:36:26.400Z,28.80
2017-11-29T08:38:53.859Z,29.33
2017-11-29T08:41:21.315Z,30.43
2017-11-29T08:43:48.777Z,33.77
2017-11-29T08:46:16.227Z,32.73
2017-11-29T08:48:44.461Z,35.43
2017-11-29T08:51:12.675Z,35.70
2017-11-29T08:53:40.918Z,42.63
2017-11-29T08:56:08.374Z,42.17
2017-11-29T08:58:35.868Z,40.63
2017-11-29T09:01:03.334Z,33.23
2017-11-29T09:03:30.813Z,35.53
2017-11-29T09:05:59.035Z,34.23
2017-11-29T09:08:27.261Z,35.20
2017-11-29T09:10:55.492Z,33.13
2017-11-29T09:13:22.975Z,36.73
2017-11-29T09:15:50.435Z,38.97
2017-11-29T09:18:17.911Z,34.50
2017-11-29T09:20:46.135Z,37.50
2017-11-29T09:23:13.598Z,33.80
2017-11-29T09:25:41.059Z,36.33
2017-11-29T09:28:08.523Z,33.30
2017-11-29T09:30:35.989Z,38.33
2017-11-29T09:33:03.447Z,36.53
2017-11-29T09:35:30.916Z,37.70
2017-11-29T09:37:58.376Z,39.30
2017-11-29T09:40:25.831Z,36.43
2017-11-29T09:42:54.806Z,35.47
2017-11-29T09:45:22.282Z,37.83
2017-11-29T09:47:49.734Z,38.50
2017-11-29T09:50:17.985Z,38.20
2017-11-29T09:52:45.456Z,39.13
2017-11-29T09:55:12.942Z,36.10
2017-11-29T09:57:41.191Z,41.00
2017-11-29T10:00:08.654Z,39.73
2017-11-29T10:02:36.118Z,36.47
2017-11-29T10:05:03.594Z,31.07
2017-11-29T10:07:31.838Z,36.03
2017-11-29T10:09:59.304Z,30.10
2017-11-29T10:12:26.771Z,32.27
2017-11-29T10:14:54.223Z,31.53
2017-11-29T10:17:21.679Z,29.10
2017-11-29T10:19:49.139Z,35.73
2017-11-29T10:22:16.603Z,33.10
2017-11-29T10:24:44.057Z,36.77
2017-11-29T10:27:11.519Z,37.13
2017-11-29T10:29:39.742Z,35.50
2017-11-29T10:32:07.971Z,36.03
2017-11-29T10:34:36.203Z,32.53
2017-11-29T10:37:03.679Z,37.07
2017-11-29T10:39:31.131Z,38.07
2017-11-29T10:41:58.598Z,34.20
2017-11-29T10:44:26.063Z,37.20
2017-11-29T10:46:53.541Z,34.63
2017-11-29T10:49:21.767Z,39.17
2017-11-29T10:51:49.223Z,37.10
2017-11-29T10:54:16.699Z,33.27
2017-11-29T10:56:44.924Z,42.10
2017-11-29T10:59:12.456Z,36.90
2017-11-29T11:01:39.919Z,39.20
2017-11-29T11:04:08.172Z,37.53
2017-11-29T11:06:36.391Z,37.10
2017-11-29T11:09:04.628Z,38.47
2017-11-29T11:11:32.091Z,41.63
2017-11-29T11:13:59.547Z,37.77
2017-11-29T11:16:27.003Z,33.80
2017-11-29T11:18:55.251Z,38.30
2017-11-29T11:21:22.741Z,38.73
2017-11-29T11:23:50.193Z,40.77
2017-11-29T11:26:17.664Z,40.80
2017-11-29T11:28:45.907Z,43.47
2017-11-29T11:31:13.371Z,40.83
2017-11-29T11:33:40.871Z,39.83
2017-11-29T11:36:09.087Z,44.13
2017-11-29T11:38:36.557Z,46.93
2017-11-29T11:41:04.030Z,42.90
2017-11-29T11:43:31.479Z,41.20
2017-11-29T11:45:58.947Z,37.83
2017-11-29T11:48:26.413Z,41.37
2017-11-29T11:50:53.870Z,44.27
2017-11-29T11:53:21.329Z,42.63
2017-11-29T11:55:49.576Z,41.33
2017-11-29T11:58:17.814Z,48.37
2017-11-29T12:00:45.285Z,41.23
2017-11-29T12:03:12.763Z,48.63
2017-11-29T12:05:40.219Z,39.33
2017-11-29T12:08:07.679Z,45.83
2017-11-29T12:10:35.140Z,47.07
2017-11-29T12:13:02.612Z,47.37
2017-11-29T12:15:30.076Z,44.03
2017-11-29T12:17:57.537Z,44.67
2017-11-29T12:20:31.778Z,41.47
2017-11-29T12:22:59.243Z,44.83
2017-11-29T12:25:26.714Z,40.93
2017-11-29T12:27:54.171Z,47.30
2017-11-29T12:30:21.658Z,50.53
2017-11-29T12:32:49.115Z,46.53
2017-11-29T12:35:16.577Z,42.00
2017-11-29T12:37:44.026Z,49.63
2017-11-29T12:40:11.483Z,44.63
2017-11-29T12:42:38.967Z,42.47
2017-11-29T12:45:06.427Z,48.10
2017-11-29T12:47:44.197Z,41.60
2017-11-29T12:50:23.331Z,47.90
2017-11-29T12:52:50.804Z,43.03
2017-11-29T12:55:18.260Z,50.57
2017-11-29T12:57:46.488Z,47.47
2017-11-29T13:00:14.716Z,48.67
2017-11-29T13:02:42.170Z,46.47
2017-11-29T13:05:11.147Z,41.70
2017-11-29T13:07:38.610Z,43.37
2017-11-29T13:10:06.063Z,40.57
2017-11-29T13:12:33.534Z,40.70
2017-11-29T13:15:00.988Z,36.13
2017-11-29T13:17:29.224Z,39.70
2017-11-29T13:19:56.679Z,40.37
2017-11-29T13:22:24.170Z,39.00
2017-11-29T13:24:51.630Z,40.27
2017-11-29T13:27:19.089Z,35.07
2017-11-29T13:29:47.328Z,32.30
2017-11-29T13:32:14.802Z,32.73
2017-11-29T13:34:42.265Z,39.67
2017-11-29T13:37:09.726Z,35.17
2017-11-29T13:39:37.183Z,40.20
2017-11-29T13:42:04.638Z,37.53
2017-11-29T13:44:32.127Z,36.07
2017-11-29T13:46:59.588Z,38.17
2017-11-29T13:49:27.828Z,33.57
2017-11-29T13:51:55.277Z,36.60
2017-11-29T13:54:22.745Z,40.80
2017-11-29T13:56:50.209Z,35.63
2017-11-29T13:59:17.679Z,38.47
2017-11-29T14:01:45.144Z,35.33
2017-11-29T14:04:12.592Z,36.83
2017-11-29T14:06:40.817Z,36.30
2017-11-29T14:09:08.279Z,38.23
2017-11-29T14:11:36.537Z,40.13
2017-11-29T14:14:03.995Z,37.40
2017-11-29T14:16:31.448Z,37.63
2017-11-29T14:18:58.930Z,42.30
2017-11-29T14:21:26.391Z,39.10
2017-11-29T14:23:54.611Z,37.10
2017-11-29T14:26:22.840Z,31.47
2017-11-29T14:28:51.111Z,39.63
2017-11-29T14:31:18.570Z,40.03
2017-11-29T14:33:46.062Z,36.90
2017-11-29T14:36:13.519Z,38.63
2017-11-29T14:38:40.979Z,38.83
2017-11-29T14:41:08.440Z,36.67
2017-11-29T14:43:35.922Z,37.80
2017-11-29T14:46:04.156Z,37.10
2017-11-29T14:48:31.603Z,32.83
2017-11-29T14:50:59.080Z,33.57
2017-11-29T14:53:26.538Z,39.80
2017-11-29T14:55:53.991Z,38.70
2017-11-29T14:58:21.462Z,41.10
2017-11-29T15:00:49.719Z,38.20
2017-11-29T15:03:17.182Z,44.50
2017-11-29T15:05:44.650Z,45.40
2017-11-29T15:08:12.114Z,41.37
2017-11-29T15:10:40.341Z,39.50
2017-11-29T15:13:07.815Z,42.20
2017-11-29T15:15:35.279Z,44.20
2017-11-29T15:18:02.747Z,46.93
2017-11-29T15:20:30.204Z,41.00
2017-11-29T15:22:57.650Z,43.50
2017-11-29T15:25:25.122Z,49.53
2017-11-29T15:27:52.564Z,48.83
2017-11-29T15:30:21.682Z,39.43
2017-11-29T15:32:49.127Z,40.57
2017-11-29T15:35:16.596Z,44.10
2017-11-29T15:37:44.039Z,49.40
2017-11-29T15:40:11.502Z,38.73
2017-11-29T15:42:38.963Z,42.87
2017-11-29T15:45:06.425Z,37.70
2017-11-29T15:47:33.875Z,38.87
2017-11-29T15:50:01.331Z,32.43
2017-11-29T15:52:28.784Z,36.33
2017-11-29T15:54:56.246Z,37.70
2017-11-29T15:57:23.699Z,40.37
2017-11-29T15:59:51.211Z,36.23
2017-11-29T16:02:18.684Z,37.97
2017-11-29T16:04:46.162Z,40.40
2017-11-29T16:07:13.618Z,35.80
2017-11-29T16:09:41.080Z,39.00
2017-11-29T16:12:08.539Z,35.33
2017-11-29T16:14:36.041Z,38.00
2017-11-29T16:17:04.264Z,40.73
2017-11-29T16:19:31.723Z,43.37
2017-11-29T16:21:59.180Z,42.97
2017-11-29T16:24:27.432Z,41.00
2017-11-29T16:26:54.919Z,49.27
2017-11-29T16:29:23.143Z,47.43
2017-11-29T16:31:51.371Z,44.20
2017-11-29T16:34:18.822Z,44.63
2017-11-29T16:36:46.279Z,44.13
2017-11-29T16:39:14.503Z,42.03
2017-11-29T16:41:42.842Z,46.30
2017-11-29T16:44:10.314Z,49.27
2017-11-29T16:46:38.562Z,50.80
2017-11-29T16:49:06.777Z,44.37
2017-11-29T16:51:34.274Z,43.70
2017-11-29T16:54:01.739Z,44.60
2017-11-29T16:56:29.214Z,39.20
2017-11-29T16:58:57.443Z,42.27
2017-11-29T17:01:25.673Z,39.30
2017-11-29T17:03:53.130Z,41.63
2017-11-29T17:06:20.583Z,39.00
2017-11-29T17:08:48.053Z,40.60
2017-11-29T17:11:15.552Z,43.63
2017-11-29T17:13:43.780Z,43.20
2017-11-29T17:16:11.284Z,44.03
2017-11-29T17:18:39.518Z,37.97
2017-11-29T17:21:06.971Z,41.77
2017-11-29T17:23:34.432Z,40.13
2017-11-29T17:26:01.887Z,39.07
2017-11-29T17:28:29.359Z,40.10
2017-11-29T17:30:56.818Z,40.40
2017-11-29T17:33:24.278Z,43.30
2017-11-29T17:35:51.735Z,42.70
2017-11-29T17:38:19.221Z,46.70
2017-11-29T17:40:47.483Z,38.20
2017-11-29T17:43:15.717Z,39.10
2017-11-29T17:45:43.198Z,39.23
2017-11-29T17:48:10.679Z,41.93
2017-11-29T17:50:38.907Z,39.73
2017-11-29T17:53:06.384Z,39.73
2017-11-29T17:55:34.849Z,36.20
2017-11-29T17:58:02.308Z,39.23
2017-11-29T18:00:29.806Z,40.40
2017-11-29T18:02:58.032Z,36.80
2017-11-29T18:05:26.279Z,40.97
2017-11-29T18:07:53.738Z,37.80
2017-11-29T18:10:21.231Z,37.00
2017-11-29T18:12:48.679Z,35.30
2017-11-29T18:15:16.135Z,41.60
2017-11-29T18:17:43.596Z,38.40
2017-11-29T18:20:11.074Z,42.23
2017-11-29T18:22:39.326Z,39.40
2017-11-29T18:25:06.795Z,39.57
2017-11-29T18:27:34.252Z,40.60
2017-11-29T18:30:01.803Z,40.67
2017-11-29T18:32:29.286Z,44.20
2017-11-29T18:34:56.738Z,47.87
2017-11-29T18:37:24.991Z,48.43
2017-11-29T18:39:52.463Z,45.63
2017-11-29T18:42:19.934Z,44.70
2017-11-29T18:44:47.395Z,46.67
2017-11-29T18:47:14.869Z,48.27
2017-11-29T18:49:43.312Z,46.03
2017-11-29T18:52:11.562Z,51.37
2017-11-29T18:54:39.784Z,44.33
2017-11-29T18:57:08.045Z,43.10
2017-11-29T18:59:35.502Z,48.53
2017-11-29T19:02:02.965Z,49.80
2017-11-29T19:04:30.559Z,46.30
2017-11-29T19:06:58.825Z,43.10
2017-11-29T19:09:26.283Z,43.50
2017-11-29T19:11:54.515Z,42.87
2017-11-29T19:14:21.975Z,42.50
2017-11-29T19:16:49.434Z,42.27
2017-11-29T19:19:16.898Z,42.90
2017-11-29T19:21:44.359Z,41.10
2017-11-29T19:24:11.808Z,39.43
2017-11-29T19:26:39.266Z,41.23
2017-11-29T19:29:07.528Z,38.83
2017-11-29T19:31:35.015Z,40.10
2017-11-29T19:34:02.474Z,39.17
2017-11-29T19:36:29.948Z,36.87
2017-11-29T19:38:58.180Z,34.33
2017-11-29T19:41:25.662Z,33.93
2017-11-29T19:43:53.122Z,35.63
2017-11-29T19:46:20.639Z,33.90
2017-11-29T19:48:48.108Z,39.03
2017-11-29T19:51:15.618Z,33.83
2017-11-29T19:53:43.853Z,38.30
2017-11-29T19:56:11.315Z,36.20
2017-11-29T19:58:39.555Z,34.80
2017-11-29T20:01:07.032Z,31.27
2017-11-29T20:03:35.312Z,32.93
2017-11-29T20:06:02.780Z,35.40
2017-11-29T20:08:30.232Z,33.70
2017-11-29T20:10:58.452Z,35.90
2017-11-29T20:13:26.696Z,34.83
2017-11-29T20:15:54.168Z,33.37
2017-11-29T20:18:21.681Z,34.83
2017-11-29T20:20:49.152Z,33.73
2017-11-29T20:23:16.625Z,31.60
2017-11-29T20:25:44.842Z,35.33
2017-11-29T20:28:13.076Z,34.87
2017-11-29T20:30:40.523Z,32.47
2017-11-29T20:33:07.999Z,39.00
2017-11-29T20:35:35.456Z,36.60
2017-11-29T20:38:02.896Z,38.20
2017-11-29T20:40:31.111Z,38.03
2017-11-29T20:42:59.331Z,36.70
2017-11-29T20:45:26.786Z,39.33
2017-11-29T20:47:54.251Z,36.80
2017-11-29T20:50:21.724Z,39.27
2017-11-29T20:52:55.024Z,39.60
2017-11-29T20:55:22.514Z,42.77
2017-11-29T20:57:50.732Z,45.73
2017-11-29T21:00:18.208Z,38.57
2017-11-29T21:02:45.657Z,37.50
2017-11-29T21:05:13.112Z,40.10
2017-11-29T21:07:40.566Z,43.23
2017-11-29T21:10:08.014Z,40.73
2017-11-29T21:12:35.502Z,43.47
2017-11-29T21:15:02.957Z,43.03
2017-11-29T21:17:31.183Z,39.60
2017-11-29T21:19:58.684Z,39.97
2017-11-29T21:22:26.123Z,43.10
2017-11-29T21:24:53.585Z,38.90
2017-11-29T21:27:21.807Z,41.60
2017-11-29T21:29:49.270Z,39.10
2017-11-29T21:32:17.495Z,34.03
2017-11-29T21:34:44.947Z,37.23
2017-11-29T21:37:12.409Z,34.97
2017-11-29T21:39:39.867Z,38.90
2017-11-29T21:42:07.329Z,37.30
2017-11-29T21:44:34.784Z,35.87
2017-11-29T21:47:02.257Z,41.30
2017-11-29T21:49:29.713Z,39.73
2017-11-29T21:51:57.161Z,43.57
2017-11-29T21:54:24.618Z,37.40
2017-11-29T21:56:52.083Z,47.80
2017-11-29T21:59:19.542Z,38.13
2017-11-29T22:01:47.027Z,39.47
2017-11-29T22:04:14.488Z,33.30
2017-11-29T22:06:41.941Z,38.20
2017-11-29T22:09:10.748Z,37.13
2017-11-29T22:11:38.973Z,39.70
2017-11-29T22:14:06.442Z,42.03
2017-11-29T22:16:33.919Z,33.03
2017-11-29T22:19:01.375Z,41.97
2017-11-29T22:21:28.872Z,34.70
2017-11-29T22:23:56.332Z,35.10
2017-11-29T22:26:23.811Z,35.83
2017-11-29T22:28:51.275Z,40.40
2017-11-29T22:31:18.730Z,41.47
2017-11-29T22:33:46.192Z,40.47
2017-11-29T22:36:13.638Z,37.20
2017-11-29T22:38:41.140Z,40.20
2017-11-29T22:41:08.590Z,39.17
2017-11-29T22:43:36.085Z,45.03
2017-11-29T22:46:03.530Z,45.83
2017-11-29T22:48:31.758Z,38.07
2017-11-29T22:50:59.213Z,40.10
2017-11-29T22:53:26.670Z,41.10
2017-11-29T22:55:54.119Z,47.00
2017-11-29T22:58:21.584Z,40.47
2017-11-29T23:00:49.043Z,38.23
2017-11-29T23:03:16.500Z,38.60
2017-11-29T23:05:43.959Z,39.27
2017-11-29T23:08:11.412Z,42.47
2017-11-29T23:10:38.868Z,41.73
2017-11-29T23:13:06.335Z,48.07
2017-11-29T23:15:33.783Z,39.97
2017-11-29T23:18:01.238Z,43.53
2017-11-29T23:20:28.695Z,41.33
2017-11-29T23:22:56.186Z,39.97
2017-11-29T23:25:23.639Z,41.97
2017-11-29T23:27:51.099Z,41.50
2017-11-29T23:30:18.555Z,40.50
2017-11-29T23:32:46.012Z,43.77
2017-11-29T23:35:13.483Z,43.00
2017-11-29T23:37:41.710Z,42.10
2017-11-29T23:40:09.180Z,46.03
2017-11-29T23:42:36.632Z,49.77
2017-11-29T23:45:04.117Z,45.07
2017-11-29T23:47:31.585Z,44.03
2017-11-29T23:49:59.802Z,37.67
2017-11-29T23:52:27.257Z,39.83
2017-11-29T23:54:55.403Z,47.60
2017-11-29T23:57:23.616Z,43.30
2017-11-29T23:59:51.080Z,39.43
